createdAt,value
2023-02-13T00:01:15.579Z,57.19
2023-02-13T00:03:43.952Z,57.22
2023-02-13T00:06:12.141Z,57.20
2023-02-13T00:08:40.208Z,57.18
2023-02-13T00:11:08.496Z,57.10
2023-02-13T00:13:36.620Z,57.07
2023-02-13T00:16:06.313Z,57.18
2023-02-13T00:18:38.008Z,57.13
2023-02-13T00:21:08.554Z,57.19
2023-02-13T00:23:38.338Z,57.23
2023-02-13T00:26:08.911Z,57.14
2023-02-13T00:28:39.218Z,57.03
2023-02-13T00:31:09.266Z,57.02
2023-02-13T00:33:39.129Z,57.03
2023-02-13T00:36:09.299Z,57.03
2023-02-13T00:38:38.231Z,57.10
2023-02-13T00:41:07.275Z,57.10
2023-02-13T00:43:36.518Z,57.17
2023-02-13T00:46:05.041Z,57.19
2023-02-13T00:48:34.947Z,57.21
2023-02-13T00:51:05.541Z,57.15
2023-02-13T00:53:34.429Z,57.23
2023-02-13T00:56:02.712Z,57.21
2023-02-13T00:58:31.012Z,57.16
2023-02-13T01:01:00.315Z,57.15
2023-02-13T01:03:28.861Z,57.11
2023-02-13T01:05:57.781Z,57.00
2023-02-13T01:08:29.275Z,57.10
2023-02-13T01:10:57.981Z,57.17
2023-02-13T01:13:26.739Z,57.19
2023-02-13T01:15:55.302Z,57.06
2023-02-13T01:18:23.408Z,57.01
2023-02-13T01:20:59.171Z,56.70
2023-02-13T01:23:31.853Z,56.77
2023-02-13T01:26:01.620Z,56.81
2023-02-13T01:28:29.799Z,56.84
2023-02-13T01:30:59.240Z,56.84
2023-02-13T01:33:29.152Z,56.84
2023-02-13T01:35:58.143Z,56.82
2023-02-13T01:38:26.251Z,56.77
2023-02-13T01:40:56.683Z,56.74
2023-02-13T01:43:25.936Z,56.81
2023-02-13T01:45:57.428Z,56.77
2023-02-13T01:48:29.031Z,56.81
2023-02-13T01:51:02.015Z,56.77
2023-02-13T01:53:33.232Z,56.84
2023-02-13T01:56:06.559Z,56.76
2023-02-13T01:58:38.993Z,56.74
2023-02-13T02:01:09.904Z,56.68
2023-02-13T02:03:42.552Z,56.66
2023-02-13T02:06:18.860Z,56.69
2023-02-13T02:08:50.362Z,56.75
2023-02-13T02:11:30.128Z,56.58
2023-02-13T02:13:59.795Z,56.71
2023-02-13T02:16:34.277Z,56.72
2023-02-13T02:19:10.577Z,56.75
2023-02-13T02:22:07.249Z,56.55
2023-02-13T02:24:58.771Z,56.52
2023-02-13T02:28:01.455Z,56.61
2023-02-13T02:31:35.475Z,56.74
2023-02-13T02:34:18.020Z,56.76
2023-02-13T02:37:02.907Z,56.68
2023-02-13T02:39:44.947Z,56.64
2023-02-13T02:42:23.216Z,56.61
2023-02-13T02:44:57.658Z,56.62
2023-02-13T02:47:45.477Z,56.74
2023-02-13T02:50:28.664Z,56.43
2023-02-13T02:53:07.773Z,56.64
2023-02-13T02:55:47.688Z,56.73
2023-02-13T02:58:38.999Z,56.90
2023-02-13T03:01:30.761Z,56.99
2023-02-13T03:04:19.136Z,57.06
2023-02-13T03:06:52.987Z,56.89
2023-02-13T03:09:41.742Z,56.97
2023-02-13T03:12:30.180Z,56.98
2023-02-13T03:14:58.293Z,56.99
2023-02-13T03:17:43.664Z,56.94
2023-02-13T03:20:38.868Z,56.75
2023-02-13T03:23:17.590Z,56.67
2023-02-13T03:25:58.573Z,56.93
2023-02-13T03:28:50.092Z,57.14
2023-02-13T03:31:32.820Z,56.93
2023-02-13T03:34:05.272Z,57.10
2023-02-13T03:37:00.284Z,56.97
2023-02-13T03:39:39.580Z,56.97
2023-02-13T03:42:12.213Z,57.22
2023-02-13T03:44:45.048Z,57.20
2023-02-13T03:47:15.431Z,57.20
2023-02-13T03:50:05.862Z,57.22
2023-02-13T03:52:39.585Z,57.20
2023-02-13T03:55:30.996Z,57.09
2023-02-13T03:58:20.899Z,57.13
2023-02-13T04:00:52.949Z,57.11
2023-02-13T04:03:26.397Z,56.92
2023-02-13T04:05:59.443Z,57.26
2023-02-13T04:08:27.499Z,57.64
2023-02-13T04:11:05.205Z,57.50
2023-02-13T04:13:36.169Z,57.61
2023-02-13T04:16:11.400Z,57.45
2023-02-13T04:18:40.869Z,57.44
2023-02-13T04:21:09.344Z,57.61
2023-02-13T04:23:37.909Z,57.52
2023-02-13T04:26:12.869Z,57.26
2023-02-13T04:28:41.117Z,57.37
2023-02-13T04:31:09.420Z,57.41
2023-02-13T04:33:37.670Z,57.33
2023-02-13T04:36:06.422Z,57.24
2023-02-13T04:38:34.734Z,57.71
2023-02-13T04:41:02.820Z,57.48
2023-02-13T04:43:32.268Z,57.55
2023-02-13T04:46:00.508Z,57.48
2023-02-13T04:48:28.647Z,57.53
2023-02-13T04:50:57.073Z,57.44
2023-02-13T04:53:25.448Z,57.58
2023-02-13T04:55:53.781Z,57.67
2023-02-13T04:58:21.875Z,57.73
2023-02-13T05:00:51.465Z,57.74
2023-02-13T05:03:19.620Z,57.70
2023-02-13T05:05:47.730Z,57.68
2023-02-13T05:08:15.861Z,57.64
2023-02-13T05:10:44.037Z,57.63
2023-02-13T05:13:12.295Z,57.61
2023-02-13T05:15:40.364Z,57.60
2023-02-13T05:18:09.818Z,57.51
2023-02-13T05:20:37.899Z,57.49
2023-02-13T05:23:22.952Z,57.46
2023-02-13T05:25:51.821Z,57.62
2023-02-13T05:28:37.132Z,57.64
2023-02-13T05:31:05.487Z,57.67
2023-02-13T05:33:35.076Z,57.66
2023-02-13T05:36:03.111Z,57.58
2023-02-13T05:38:31.140Z,57.54
2023-02-13T05:41:00.143Z,57.50
2023-02-13T05:43:28.318Z,57.51
2023-02-13T05:46:03.342Z,57.24
2023-02-13T05:48:31.417Z,57.51
2023-02-13T05:51:00.951Z,57.55
2023-02-13T05:53:29.942Z,57.74
2023-02-13T05:55:58.138Z,57.69
2023-02-13T05:58:26.266Z,57.70
2023-02-13T06:00:57.265Z,57.61
2023-02-13T06:03:25.642Z,57.64
2023-02-13T06:05:53.877Z,57.60
2023-02-13T06:08:24.324Z,57.61
2023-02-13T06:10:52.579Z,57.66
2023-02-13T06:13:20.717Z,57.67
2023-02-13T06:15:48.956Z,57.65
2023-02-13T06:18:17.093Z,57.90
2023-02-13T06:20:45.231Z,57.90
2023-02-13T06:23:13.366Z,57.90
2023-02-13T06:25:43.008Z,57.92
2023-02-13T06:28:11.142Z,57.87
2023-02-13T06:30:39.237Z,57.87
2023-02-13T06:33:07.444Z,57.93
2023-02-13T06:35:35.543Z,58.00
2023-02-13T06:38:03.676Z,57.99
2023-02-13T06:40:31.743Z,57.96
2023-02-13T06:43:01.313Z,58.03
2023-02-13T06:45:29.396Z,57.93
2023-02-13T06:47:57.515Z,57.87
2023-02-13T06:50:25.617Z,57.96
2023-02-13T06:52:53.842Z,57.93
2023-02-13T06:55:22.381Z,57.89
2023-02-13T06:57:50.806Z,57.96
2023-02-13T07:00:26.193Z,57.88
2023-02-13T07:02:56.262Z,57.90
2023-02-13T07:05:24.349Z,57.80
2023-02-13T07:07:52.464Z,57.81
2023-02-13T07:10:20.602Z,57.84
2023-02-13T07:13:03.593Z,57.90
2023-02-13T07:15:35.160Z,57.87
2023-02-13T07:18:04.166Z,57.81
2023-02-13T07:20:32.340Z,57.82
2023-02-13T07:23:00.946Z,57.80
2023-02-13T07:25:29.334Z,57.79
2023-02-13T07:28:01.837Z,57.67
2023-02-13T07:30:30.521Z,57.70
2023-02-13T07:33:01.837Z,57.58
2023-02-13T07:35:30.293Z,57.56
2023-02-13T07:37:59.371Z,57.47
2023-02-13T07:40:27.578Z,57.42
2023-02-13T07:42:55.797Z,57.36
2023-02-13T07:45:24.044Z,57.32
2023-02-13T07:47:52.097Z,57.22
2023-02-13T07:50:21.665Z,57.61
2023-02-13T07:52:54.832Z,57.10
2023-02-13T07:55:23.119Z,57.16
2023-02-13T07:57:51.519Z,57.00
2023-02-13T08:00:20.830Z,56.91
2023-02-13T08:02:49.596Z,56.94
2023-02-13T08:05:17.884Z,56.94
2023-02-13T08:07:47.313Z,56.74
2023-02-13T08:10:33.406Z,56.77
2023-02-13T08:13:01.783Z,56.67
2023-02-13T08:15:29.799Z,56.66
2023-02-13T08:17:57.871Z,56.38
2023-02-13T08:20:25.927Z,56.27
2023-02-13T08:22:55.469Z,56.40
2023-02-13T08:25:23.488Z,56.31
2023-02-13T08:27:51.537Z,56.20
2023-02-13T08:30:19.542Z,55.97
2023-02-13T08:32:53.882Z,55.85
2023-02-13T08:35:26.686Z,55.74
2023-02-13T08:37:56.253Z,55.61
2023-02-13T08:40:25.552Z,55.56
2023-02-13T08:42:55.361Z,55.83
2023-02-13T08:45:23.878Z,55.69
2023-02-13T08:47:51.912Z,55.15
2023-02-13T08:50:20.169Z,55.23
2023-02-13T08:52:48.186Z,54.96
2023-02-13T08:55:17.829Z,54.88
2023-02-13T08:57:45.862Z,54.94
2023-02-13T09:00:14.960Z,55.00
2023-02-13T09:02:43.084Z,54.78
2023-02-13T09:05:11.146Z,54.55
2023-02-13T09:07:39.163Z,54.44
2023-02-13T09:10:08.693Z,55.91
2023-02-13T09:12:38.371Z,55.99
2023-02-13T09:15:06.824Z,56.07
2023-02-13T09:17:34.998Z,55.81
2023-02-13T09:20:03.035Z,55.87
2023-02-13T09:22:31.044Z,55.81
2023-02-13T09:25:01.069Z,55.61
2023-02-13T09:27:29.148Z,55.55
2023-02-13T09:29:58.567Z,55.41
2023-02-13T09:32:26.992Z,55.31
2023-02-13T09:34:55.176Z,55.47
2023-02-13T09:37:24.159Z,55.55
2023-02-13T09:39:52.201Z,54.79
2023-02-13T09:42:25.069Z,53.71
2023-02-13T09:44:55.671Z,54.35
2023-02-13T09:47:32.134Z,54.62
2023-02-13T09:50:04.468Z,54.52
2023-02-13T09:52:35.667Z,54.10
2023-02-13T09:55:04.198Z,54.29
2023-02-13T09:57:36.015Z,53.01
2023-02-13T10:00:13.457Z,53.10
2023-02-13T10:02:58.898Z,51.95
2023-02-13T10:05:48.902Z,51.56
2023-02-13T10:08:27.805Z,51.27
2023-02-13T10:11:04.219Z,51.03
2023-02-13T10:13:56.620Z,51.16
2023-02-13T10:16:28.716Z,51.00
2023-02-13T10:19:04.639Z,50.92
2023-02-13T10:21:36.806Z,50.72
2023-02-13T10:24:11.418Z,50.44
2023-02-13T10:26:45.722Z,50.24
2023-02-13T10:29:38.545Z,50.37
2023-02-13T10:32:11.905Z,50.53
2023-02-13T10:34:45.248Z,50.13
2023-02-13T10:37:17.472Z,50.16
2023-02-13T10:39:47.251Z,49.59
2023-02-13T10:42:25.816Z,49.61
2023-02-13T10:45:07.625Z,49.55
2023-02-13T10:47:48.350Z,49.47
2023-02-13T10:50:27.140Z,49.33
2023-02-13T10:53:07.643Z,48.92
2023-02-13T10:56:01.339Z,48.76
2023-02-13T10:58:40.913Z,48.63
2023-02-13T11:01:15.509Z,48.60
2023-02-13T11:03:45.481Z,48.43
2023-02-13T11:06:17.955Z,48.52
2023-02-13T11:08:48.777Z,48.38
2023-02-13T11:11:34.350Z,48.53
2023-02-13T11:14:11.610Z,48.52
2023-02-13T11:16:42.583Z,48.28
2023-02-13T11:19:18.547Z,48.04
2023-02-13T11:21:49.752Z,48.17
2023-02-13T11:24:22.020Z,47.89
2023-02-13T11:26:53.767Z,47.57
2023-02-13T11:29:26.325Z,47.66
2023-02-13T11:32:12.684Z,47.41
2023-02-13T11:34:40.967Z,47.71
2023-02-13T11:37:17.521Z,47.17
2023-02-13T11:39:47.770Z,47.26
2023-02-13T11:42:18.121Z,47.50
2023-02-13T11:44:51.315Z,47.38
2023-02-13T11:47:33.552Z,47.20
2023-02-13T11:50:01.805Z,47.46
2023-02-13T11:52:33.830Z,47.68
2023-02-13T11:55:05.297Z,47.48
2023-02-13T11:57:35.554Z,47.57
2023-02-13T12:00:32.456Z,46.99
2023-02-13T12:03:00.670Z,47.83
2023-02-13T12:05:29.731Z,47.90
2023-02-13T12:08:02.250Z,47.89
2023-02-13T12:10:32.668Z,48.17
2023-02-13T12:13:05.624Z,48.37
2023-02-13T12:15:37.236Z,48.37
2023-02-13T12:18:11.743Z,48.38
2023-02-13T12:20:49.260Z,48.14
2023-02-13T12:23:30.040Z,47.97
2023-02-13T12:26:13.852Z,48.08
2023-02-13T12:29:12.105Z,48.01
2023-02-13T12:31:52.103Z,48.05
2023-02-13T12:34:52.408Z,47.76
2023-02-13T12:37:46.066Z,49.09
2023-02-13T12:40:33.115Z,48.79
2023-02-13T12:43:18.128Z,48.82
2023-02-13T12:45:51.196Z,48.85
2023-02-13T12:48:32.889Z,48.65
2023-02-13T12:51:18.856Z,48.53
2023-02-13T12:54:07.180Z,48.79
2023-02-13T12:56:49.099Z,48.67
2023-02-13T12:59:28.427Z,48.55
2023-02-13T13:02:25.258Z,48.15
2023-02-13T13:05:06.626Z,48.79
2023-02-13T13:08:02.946Z,48.39
2023-02-13T13:10:42.392Z,48.82
2023-02-13T13:13:25.163Z,48.82
2023-02-13T13:16:03.916Z,48.71
2023-02-13T13:18:43.964Z,48.62
2023-02-13T13:21:19.604Z,48.40
2023-02-13T13:23:53.500Z,48.47
2023-02-13T13:26:32.197Z,48.57
2023-02-13T13:29:06.082Z,48.63
2023-02-13T13:31:37.147Z,48.89
2023-02-13T13:34:12.063Z,48.75
2023-02-13T13:36:48.336Z,48.57
2023-02-13T13:39:29.018Z,48.53
2023-02-13T13:42:08.321Z,48.47
2023-02-13T13:44:50.207Z,48.47
2023-02-13T13:47:27.370Z,48.57
2023-02-13T13:49:56.797Z,49.09
2023-02-13T13:52:27.695Z,49.04
2023-02-13T13:54:57.098Z,48.95
2023-02-13T13:57:25.701Z,48.85
2023-02-13T14:00:26.607Z,48.88
2023-02-13T14:03:22.596Z,48.80
2023-02-13T14:06:04.448Z,48.53
2023-02-13T14:09:10.017Z,48.71
2023-02-13T14:11:41.128Z,48.85
2023-02-13T14:14:53.215Z,48.56
2023-02-13T14:17:53.566Z,48.91
2023-02-13T14:20:32.303Z,49.06
2023-02-13T14:23:23.290Z,49.05
2023-02-13T14:25:51.971Z,49.50
2023-02-13T14:28:24.719Z,49.64
2023-02-13T14:30:56.839Z,49.86
2023-02-13T14:33:28.723Z,49.88
2023-02-13T14:36:05.616Z,49.76
2023-02-13T14:38:35.023Z,50.02
2023-02-13T14:41:04.139Z,50.33
2023-02-13T14:43:39.120Z,50.37
2023-02-13T14:46:25.720Z,50.47
2023-02-13T14:48:59.376Z,50.82
2023-02-13T14:51:35.491Z,50.82
2023-02-13T14:54:10.022Z,50.87
2023-02-13T14:56:40.104Z,51.10
2023-02-13T14:59:13.720Z,51.00
2023-02-13T15:01:48.201Z,51.08
2023-02-13T15:04:22.040Z,51.30
2023-02-13T15:06:53.537Z,51.35
2023-02-13T15:09:33.444Z,51.40
2023-02-13T15:12:02.127Z,52.10
2023-02-13T15:14:35.429Z,52.65
2023-02-13T15:17:08.482Z,53.10
2023-02-13T15:19:40.501Z,53.20
2023-02-13T15:22:20.365Z,52.85
2023-02-13T15:24:50.707Z,53.06
2023-02-13T15:27:23.039Z,52.93
2023-02-13T15:30:00.845Z,52.54
2023-02-13T15:32:32.166Z,52.88
2023-02-13T15:35:00.948Z,53.17
2023-02-13T15:37:31.848Z,53.13
2023-02-13T15:40:16.723Z,53.03
2023-02-13T15:42:44.859Z,53.13
2023-02-13T15:45:17.593Z,52.97
2023-02-13T15:47:47.423Z,52.98
2023-02-13T15:50:20.722Z,52.80
2023-02-13T15:52:50.384Z,52.85
2023-02-13T15:55:24.068Z,52.82
2023-02-13T15:57:54.723Z,53.04
2023-02-13T16:00:26.634Z,53.04
2023-02-13T16:02:56.338Z,53.14
2023-02-13T16:05:39.336Z,53.25
2023-02-13T16:11:31.077Z,53.39
2023-02-13T16:14:16.173Z,53.53
2023-02-13T16:16:51.850Z,53.62
2023-02-13T16:19:40.779Z,53.60
2023-02-13T16:22:27.814Z,53.62
2023-02-13T16:25:04.189Z,54.13
2023-02-13T16:27:35.899Z,54.01
2023-02-13T16:30:07.566Z,53.99
2023-02-13T16:32:38.858Z,53.89
2023-02-13T16:35:29.073Z,53.62
2023-02-13T16:38:02.400Z,53.88
2023-02-13T16:40:42.930Z,53.73
2023-02-13T16:43:41.903Z,53.73
2023-02-13T16:46:35.772Z,53.62
2023-02-13T16:49:22.053Z,53.45
2023-02-13T16:51:59.895Z,53.75
2023-02-13T16:54:32.904Z,53.83
2023-02-13T16:57:03.696Z,53.91
2023-02-13T16:59:45.305Z,53.75
2023-02-13T17:02:25.238Z,53.71
2023-02-13T17:04:55.385Z,53.96
2023-02-13T17:07:26.281Z,54.03
2023-02-13T17:09:59.548Z,54.04
2023-02-13T17:12:29.148Z,54.11
2023-02-13T17:15:00.517Z,54.10
2023-02-13T17:17:31.590Z,54.14
2023-02-13T17:20:00.363Z,54.13
2023-02-13T17:22:40.571Z,53.88
2023-02-13T17:25:13.197Z,54.04
2023-02-13T17:27:43.041Z,53.97
2023-02-13T17:30:16.682Z,53.73
2023-02-13T17:32:46.814Z,53.90
2023-02-13T17:35:16.968Z,53.96
2023-02-13T17:37:46.152Z,53.91
2023-02-13T17:40:18.007Z,53.79
2023-02-13T17:42:48.166Z,54.01
2023-02-13T17:45:19.500Z,53.99
2023-02-13T17:47:47.857Z,54.01
2023-02-13T17:50:18.265Z,53.93
2023-02-13T17:52:49.063Z,54.00
2023-02-13T17:55:21.235Z,54.04
2023-02-13T17:57:49.871Z,54.10
2023-02-13T18:00:21.541Z,54.08
2023-02-13T18:02:50.981Z,54.13
2023-02-13T18:05:20.084Z,54.20
2023-02-13T18:07:48.883Z,54.17
2023-02-13T18:10:19.391Z,54.20
2023-02-13T18:12:48.576Z,54.23
2023-02-13T18:15:17.511Z,54.34
2023-02-13T18:17:47.688Z,54.42
2023-02-13T18:20:18.523Z,54.45
2023-02-13T18:22:46.844Z,54.42
2023-02-13T18:25:15.337Z,54.43
2023-02-13T18:27:43.674Z,54.46
2023-02-13T18:30:14.965Z,54.58
2023-02-13T18:32:43.412Z,54.65
2023-02-13T18:35:13.353Z,54.66
2023-02-13T18:37:41.732Z,54.75
2023-02-13T18:40:11.082Z,54.87
2023-02-13T18:42:39.893Z,54.91
2023-02-13T18:45:08.975Z,54.91
2023-02-13T18:47:37.240Z,54.87
2023-02-13T18:50:06.338Z,54.94
2023-02-13T18:52:36.562Z,55.01
2023-02-13T18:55:07.017Z,55.26
2023-02-13T18:57:35.469Z,55.18
2023-02-13T19:00:04.960Z,55.13
2023-02-13T19:02:33.561Z,55.14
2023-02-13T19:05:02.364Z,55.07
2023-02-13T19:07:30.767Z,55.11
2023-02-13T19:10:00.425Z,55.21
2023-02-13T19:12:28.679Z,55.39
2023-02-13T19:14:56.950Z,55.36
2023-02-13T19:17:25.381Z,55.65
2023-02-13T19:19:55.112Z,55.82
2023-02-13T19:22:23.414Z,55.76
2023-02-13T19:24:51.701Z,55.74
2023-02-13T19:27:21.448Z,55.87
2023-02-13T19:29:49.759Z,55.94
2023-02-13T19:32:18.123Z,55.94
2023-02-13T19:34:47.000Z,56.03
2023-02-13T19:37:15.378Z,56.02
2023-02-13T19:39:43.699Z,56.01
2023-02-13T19:42:11.958Z,55.97
2023-02-13T19:44:41.639Z,55.85
2023-02-13T19:47:09.921Z,55.94
2023-02-13T19:49:38.219Z,56.00
2023-02-13T19:52:06.489Z,56.19
2023-02-13T19:54:34.760Z,56.13
2023-02-13T19:57:05.778Z,56.21
2023-02-13T19:59:34.095Z,56.19
2023-02-13T20:02:03.868Z,56.29
2023-02-13T20:04:36.719Z,56.30
2023-02-13T20:07:06.139Z,56.23
2023-02-13T20:09:35.194Z,56.27
2023-02-13T20:12:03.523Z,56.37
2023-02-13T20:14:31.791Z,56.45
2023-02-13T20:17:00.188Z,56.37
2023-02-13T20:19:30.769Z,56.37
2023-02-13T20:21:59.021Z,56.50
2023-02-13T20:24:27.308Z,56.54
2023-02-13T20:26:58.900Z,56.57
2023-02-13T20:29:27.173Z,56.58
2023-02-13T20:31:55.510Z,56.77
2023-02-13T20:34:23.857Z,57.00
2023-02-13T20:36:53.539Z,57.31
2023-02-13T20:39:21.900Z,57.29
2023-02-13T20:41:50.611Z,57.22
2023-02-13T20:44:21.042Z,57.15
2023-02-13T20:46:51.133Z,57.10
2023-02-13T20:49:22.000Z,57.15
2023-02-13T20:51:50.585Z,57.25
2023-02-13T20:54:20.600Z,57.27
2023-02-13T20:56:48.855Z,57.30
2023-02-13T20:59:17.182Z,57.55
2023-02-13T21:01:46.600Z,57.70
2023-02-13T21:04:19.231Z,57.74
2023-02-13T21:06:48.302Z,57.55
2023-02-13T21:09:17.142Z,57.55
2023-02-13T21:11:46.871Z,57.41
2023-02-13T21:14:15.556Z,57.41
2023-02-13T21:16:44.102Z,57.42
2023-02-13T21:19:16.261Z,57.50
2023-02-13T21:21:45.179Z,57.64
2023-02-13T21:24:15.584Z,57.48
2023-02-13T21:26:44.602Z,57.45
2023-02-13T21:29:14.377Z,57.45
2023-02-13T21:31:47.547Z,57.60
2023-02-13T21:34:17.643Z,57.77
2023-02-13T21:36:46.640Z,57.81
2023-02-13T21:39:15.855Z,57.85
2023-02-13T21:41:46.073Z,57.81
2023-02-13T21:44:16.600Z,57.81
2023-02-13T21:46:45.860Z,57.86
2023-02-13T21:49:15.989Z,58.15
2023-02-13T21:51:45.081Z,58.08
2023-02-13T21:54:13.848Z,57.96
2023-02-13T21:56:43.532Z,57.89
2023-02-13T21:59:15.050Z,57.93
2023-02-13T22:01:50.181Z,57.84
2023-02-13T22:04:19.094Z,57.94
2023-02-13T22:06:51.179Z,57.97
2023-02-13T22:09:20.698Z,58.13
2023-02-13T22:11:51.463Z,58.16
2023-02-13T22:14:20.263Z,58.17
2023-02-13T22:16:51.653Z,58.19
2023-02-13T22:19:20.694Z,58.31
2023-02-13T22:21:49.031Z,58.29
2023-02-13T22:24:17.473Z,58.27
2023-02-13T22:26:46.540Z,58.22
2023-02-13T22:29:17.825Z,58.17
2023-02-13T22:31:46.810Z,58.15
2023-02-13T22:34:16.560Z,58.16
2023-02-13T22:36:44.916Z,58.16
2023-02-13T22:39:13.805Z,58.16
2023-02-13T22:41:45.615Z,58.19
2023-02-13T22:44:14.045Z,58.21
2023-02-13T22:46:42.414Z,58.31
2023-02-13T22:49:10.828Z,58.57
2023-02-13T22:51:40.515Z,58.58
2023-02-13T22:54:08.800Z,58.50
2023-02-13T22:56:37.081Z,58.41
2023-02-13T22:59:05.331Z,58.32
2023-02-13T23:01:33.652Z,58.32
2023-02-13T23:04:02.091Z,58.50
2023-02-13T23:06:30.769Z,58.67
2023-02-13T23:09:00.488Z,58.63
2023-02-13T23:11:46.881Z,58.64
2023-02-13T23:14:15.993Z,58.70
2023-02-13T23:17:01.763Z,58.72
2023-02-13T23:19:30.817Z,58.70
2023-02-13T23:21:59.336Z,58.79
2023-02-13T23:24:29.911Z,58.82
2023-02-13T23:26:58.479Z,58.91
2023-02-13T23:29:27.244Z,58.99
2023-02-13T23:31:55.630Z,59.19
2023-02-13T23:34:24.072Z,59.32
2023-02-13T23:36:52.354Z,59.39
2023-02-13T23:39:21.240Z,59.57
2023-02-13T23:41:50.893Z,59.61
2023-02-13T23:44:19.355Z,59.60
2023-02-13T23:46:47.771Z,59.55
2023-02-13T23:49:16.225Z,59.48
2023-02-13T23:51:44.535Z,59.61
2023-02-13T23:54:16.033Z,59.46
2023-02-13T23:56:44.768Z,59.40
2023-02-13T23:59:14.662Z,59.27
